Time;durP1;ratioP1;P1;durP2;ratioP2;P2;SDS_P1;SDS_P2;PMS_P1;PMS_P2;Temp;Humidity;BMP_temperature;BMP_pressure;BME280_temperature;BME280_humidity;BME280_pressure;Samples;Min_cycle;Max_cycle;Signal;HPM_P1;HPM_P2
2021/04/08 00:01:34;;;;;;;10.20;4.00;;;1.80;99.90;;;;;;4993462;28;20179;-78
2021/04/08 00:03:59;;;;;;;7.50;3.50;;;1.80;99.90;;;;;;4992299;28;20182;-78
2021/04/08 00:06:25;;;;;;;5.43;3.80;;;1.80;99.90;;;;;;4993081;28;20200;-79
2021/04/08 00:08:51;;;;;;;8.70;3.30;;;1.80;99.90;;;;;;4993457;28;20181;-78
2021/04/08 00:11:16;;;;;;;12.77;3.30;;;1.80;99.90;;;;;;4993330;28;20193;-79
2021/04/08 00:13:42;;;;;;;6.07;3.30;;;1.90;99.90;;;;;;4993375;28;20611;-78
2021/04/08 00:16:08;;;;;;;7.20;3.30;;;1.90;99.90;;;;;;4991643;28;20265;-79
2021/04/08 00:18:34;;;;;;;9.80;4.13;;;1.90;99.90;;;;;;4992178;28;20528;-78
2021/04/08 00:20:59;;;;;;;7.00;3.30;;;1.90;99.90;;;;;;4993256;28;20630;-79
2021/04/08 00:23:25;;;;;;;8.43;4.33;;;1.90;99.90;;;;;;4992015;28;20184;-79
2021/04/08 00:25:51;;;;;;;10.50;3.80;;;1.90;99.90;;;;;;4992653;28;20221;-79
2021/04/08 00:28:17;;;;;;;11.10;3.47;;;1.90;99.90;;;;;;4992161;28;20187;-79
2021/04/08 00:30:43;;;;;;;8.37;3.57;;;1.90;99.90;;;;;;4993272;28;20187;-78
2021/04/08 00:33:16;;;;;;;6.43;3.47;;;1.90;99.90;;;;;;4992001;28;20205;-78
2021/04/08 00:35:42;;;;;;;12.00;3.65;;;2.00;99.90;;;;;;4991433;28;20206;-79
2021/04/08 00:38:09;;;;;;;6.80;3.50;;;2.00;99.90;;;;;;4993091;28;20199;-79
2021/04/08 00:40:35;;;;;;;8.23;3.38;;;1.90;99.90;;;;;;4996286;28;20176;-79
2021/04/08 00:43:01;;;;;;;12.32;3.42;;;1.90;99.90;;;;;;4996845;28;20178;-79
2021/04/08 00:45:27;;;;;;;14.70;4.55;;;1.80;99.90;;;;;;4996215;28;20235;-78
2021/04/08 00:47:53;;;;;;;12.90;4.20;;;1.80;99.90;;;;;;4996743;28;20208;-79
2021/04/08 00:50:19;;;;;;;12.90;3.70;;;1.80;99.90;;;;;;4996529;28;20182;-79
2021/04/08 00:52:53;;;;;;;12.35;4.47;;;1.80;99.90;;;;;;4996536;28;20205;-79
2021/04/08 00:55:21;;;;;;;7.30;3.70;;;1.90;99.90;;;;;;4996105;28;20503;-79
2021/04/08 00:57:47;;;;;;;10.77;4.00;;;1.90;99.90;;;;;;4995975;28;20303;-78
2021/04/08 01:00:13;;;;;;;7.50;3.73;;;1.80;99.90;;;;;;4996271;28;20260;-78
2021/04/08 01:02:39;;;;;;;6.50;3.45;;;1.80;99.90;;;;;;4995017;28;20177;-79
2021/04/08 01:05:05;;;;;;;18.20;3.97;;;1.90;99.90;;;;;;4995950;28;20182;-76
2021/04/08 01:07:33;;;;;;;8.38;4.00;;;1.90;99.90;;;;;;4995199;28;20190;-78
2021/04/08 01:10:00;;;;;;;12.43;3.85;;;1.80;99.90;;;;;;4996332;28;20182;-78
2021/04/08 01:12:26;;;;;;;7.75;4.10;;;1.80;99.90;;;;;;4994746;28;20190;-78
2021/04/08 01:14:51;;;;;;;8.10;4.00;;;1.70;99.90;;;;;;4995897;28;20188;-78
2021/04/08 01:17:33;;;;;;;8.30;4.23;;;1.80;99.90;;;;;;4994630;28;20219;-78
2021/04/08 01:20:40;;;;;;;6.68;4.00;;;1.80;99.90;;;;;;4995951;28;20409;-79
2021/04/08 01:23:29;;;;;;;14.65;4.50;;;1.80;99.90;;;;;;4993056;28;20194;-78
2021/04/08 01:26:13;;;;;;;10.40;5.05;;;1.70;99.90;;;;;;4992235;28;20318;-79
2021/04/08 01:28:42;;;;;;;10.63;4.70;;;1.80;99.90;;;;;;4996018;28;20162;-78
2021/04/08 01:31:10;;;;;;;14.45;4.53;;;1.80;99.90;;;;;;4995849;28;20178;-79
2021/04/08 01:33:46;;;;;;;8.35;5.40;;;1.80;99.90;;;;;;4995915;28;20182;-79
2021/04/08 01:36:21;;;;;;;12.20;4.93;;;1.90;99.90;;;;;;4993902;28;20215;-79
2021/04/08 01:39:04;;;;;;;7.10;4.30;;;1.90;99.90;;;;;;4995668;28;20179;-78
2021/04/08 01:41:36;;;;;;;11.40;5.32;;;1.90;99.90;;;;;;4995575;28;20162;-78
2021/04/08 01:44:03;;;;;;;9.57;5.05;;;1.90;99.90;;;;;;4995962;28;20197;-78
2021/04/08 01:46:31;;;;;;;14.20;5.90;;;2.00;99.90;;;;;;4995100;28;20207;-78
2021/04/08 01:49:00;;;;;;;7.63;4.85;;;2.00;99.90;;;;;;4995471;28;20313;-79
2021/04/08 01:51:26;;;;;;;9.35;4.28;;;1.90;99.90;;;;;;4995247;28;20673;-79
2021/04/08 01:53:57;;;;;;;15.10;6.43;;;1.90;99.90;;;;;;4995315;28;20179;-78
2021/04/08 01:56:28;;;;;;;12.65;5.85;;;2.00;99.90;;;;;;4994879;28;20207;-78
2021/04/08 01:58:56;;;;;;;9.38;4.57;;;2.10;99.90;;;;;;4995544;28;20656;-78
2021/04/08 02:01:22;;;;;;;10.15;6.53;;;2.10;99.90;;;;;;4995176;28;20236;-79
2021/04/08 02:03:49;;;;;;;15.50;4.80;;;2.00;99.90;;;;;;4995124;28;20274;-79
2021/04/08 02:06:15;;;;;;;12.27;5.55;;;2.00;99.90;;;;;;4994564;28;20236;-78
2021/04/08 02:08:45;;;;;;;17.33;6.13;;;2.10;99.90;;;;;;4994727;28;20642;-77
2021/04/08 02:11:12;;;;;;;14.65;5.05;;;2.00;99.90;;;;;;4994925;28;20708;-77
2021/04/08 02:13:41;;;;;;;11.98;5.30;;;1.90;99.90;;;;;;4994907;28;20653;-77
2021/04/08 02:16:09;;;;;;;12.63;5.47;;;2.00;99.90;;;;;;4994429;28;20206;-77
2021/04/08 02:18:36;;;;;;;13.38;5.22;;;2.10;99.90;;;;;;4994752;28;20174;-77
2021/04/08 02:21:03;;;;;;;7.72;4.50;;;2.00;99.90;;;;;;4977365;28;20190;-77
2021/04/08 02:23:31;;;;;;;13.80;5.35;;;2.00;99.90;;;;;;4994885;28;20174;-78
2021/04/08 02:25:59;;;;;;;19.20;4.93;;;2.00;99.90;;;;;;4994165;28;20211;-76
2021/04/08 02:28:30;;;;;;;15.60;4.10;;;2.00;99.90;;;;;;4994492;28;20190;-80
2021/04/08 02:30:59;;;;;;;7.45;3.20;;;2.00;99.90;;;;;;4994752;28;20186;-79
2021/04/08 02:33:26;;;;;;;6.40;3.67;;;2.00;99.90;;;;;;4994548;28;20186;-78
2021/04/08 02:35:53;;;;;;;16.05;4.20;;;1.90;99.90;;;;;;4994020;28;20670;-78
2021/04/08 02:38:24;;;;;;;8.93;2.90;;;2.00;99.90;;;;;;4994360;28;20178;-78
2021/04/08 02:40:51;;;;;;;9.25;2.80;;;2.10;99.90;;;;;;4994385;28;20179;-78
2021/04/08 02:43:18;;;;;;;8.35;3.42;;;2.10;99.90;;;;;;4994328;28;20533;-78
2021/04/08 02:45:43;;;;;;;8.63;2.95;;;2.10;99.90;;;;;;4993952;28;20673;-79
2021/04/08 02:48:11;;;;;;;5.50;2.77;;;2.20;99.90;;;;;;4994268;28;20265;-78
2021/04/08 02:50:40;;;;;;;8.48;3.10;;;2.20;99.90;;;;;;4994150;28;20417;-77
2021/04/08 02:53:24;;;;;;;7.15;2.80;;;2.20;99.90;;;;;;4994125;28;20186;-80
2021/04/08 02:55:52;;;;;;;8.18;2.72;;;2.10;99.90;;;;;;4993831;28;20565;-78
2021/04/08 02:58:21;;;;;;;5.95;3.10;;;2.10;99.90;;;;;;4993810;28;20261;-76
2021/04/08 03:00:56;;;;;;;10.70;3.00;;;2.10;99.90;;;;;;4993814;28;20621;-77
2021/04/08 03:03:31;;;;;;;7.60;4.10;;;2.20;99.90;;;;;;4993630;28;20167;-77
2021/04/08 03:06:00;;;;;;;5.40;3.67;;;2.20;99.90;;;;;;4993607;28;20217;-79
2021/04/08 03:08:28;;;;;;;10.68;4.45;;;2.20;99.90;;;;;;4993779;28;20225;-79
2021/04/08 03:10:55;;;;;;;10.50;4.65;;;2.30;99.90;;;;;;4993584;28;20179;-78
2021/04/08 03:13:23;;;;;;;9.07;4.20;;;2.40;99.90;;;;;;4992690;28;20185;-77
2021/04/08 03:15:49;;;;;;;13.32;4.72;;;2.30;99.90;;;;;;4993450;28;20283;-78
2021/04/08 03:18:18;;;;;;;9.33;5.20;;;2.20;99.90;;;;;;4992677;28;20277;-79
2021/04/08 03:20:50;;;;;;;9.95;5.35;;;2.10;99.90;;;;;;4992462;28;20547;-77
2021/04/08 03:23:18;;;;;;;13.20;5.40;;;2.10;99.90;;;;;;4993553;28;20624;-78
2021/04/08 03:25:46;;;;;;;12.60;5.88;;;2.00;99.90;;;;;;4993218;28;20213;-78
2021/04/08 03:28:14;;;;;;;15.20;6.15;;;2.00;99.90;;;;;;4992549;28;20183;-78
2021/04/08 03:30:41;;;;;;;10.63;5.45;;;2.10;99.90;;;;;;4992397;28;20187;-79
2021/04/08 03:33:08;;;;;;;17.48;7.50;;;2.10;99.90;;;;;;4992287;28;20189;-78
2021/04/08 03:35:35;;;;;;;12.98;6.88;;;2.10;99.90;;;;;;4992080;28;20197;-78
2021/04/08 03:38:01;;;;;;;15.68;6.32;;;2.10;99.90;;;;;;4993542;28;20309;-79
2021/04/08 03:40:29;;;;;;;9.75;6.57;;;2.20;99.90;;;;;;4992271;28;20210;-78
2021/04/08 03:42:56;;;;;;;10.80;5.85;;;2.20;99.90;;;;;;4992432;28;20183;-78
2021/04/08 03:45:21;;;;;;;9.65;5.63;;;2.20;99.90;;;;;;4993225;28;20233;-78
2021/04/08 03:47:48;;;;;;;12.20;6.13;;;2.20;99.90;;;;;;4992363;28;20227;-78
2021/04/08 03:50:15;;;;;;;16.02;6.07;;;2.10;99.90;;;;;;4993547;28;20415;-78
2021/04/08 03:52:43;;;;;;;7.70;5.85;;;2.10;99.90;;;;;;4993601;28;20174;-78
2021/04/08 03:55:10;;;;;;;10.68;5.90;;;2.10;99.90;;;;;;4993005;28;20189;-80
2021/04/08 03:57:39;;;;;;;7.90;5.43;;;2.10;99.90;;;;;;4992290;28;20210;-78
2021/04/08 04:00:06;;;;;;;16.02;6.35;;;2.10;99.90;;;;;;4993515;28;20195;-78
2021/04/08 04:02:33;;;;;;;9.55;6.22;;;2.10;99.90;;;;;;4993487;28;20538;-78
2021/04/08 04:05:02;;;;;;;15.77;8.00;;;2.00;99.90;;;;;;4992898;28;20178;-78
2021/04/08 04:07:29;;;;;;;14.25;7.10;;;2.10;99.90;;;;;;4993233;28;20168;-78
2021/04/08 04:09:59;;;;;;;14.32;6.90;;;2.10;99.90;;;;;;4993475;28;20256;-78
2021/04/08 04:12:26;;;;;;;17.67;6.63;;;2.10;99.90;;;;;;4993297;28;20600;-78
2021/04/08 04:14:53;;;;;;;15.68;6.55;;;1.90;99.90;;;;;;4994006;28;20198;-78
2021/04/08 04:17:29;;;;;;;10.15;5.70;;;1.90;99.90;;;;;;4996781;28;20281;-78
2021/04/08 04:19:56;;;;;;;15.45;7.32;;;2.00;99.90;;;;;;4995719;28;20205;-78
2021/04/08 04:22:22;;;;;;;12.90;6.60;;;2.00;99.90;;;;;;4996929;28;20655;-78
2021/04/08 04:24:48;;;;;;;11.20;6.03;;;2.00;99.90;;;;;;4996578;28;20181;-78
2021/04/08 04:27:14;;;;;;;9.35;6.63;;;2.10;99.90;;;;;;4996663;28;21060;-79
2021/04/08 04:29:40;;;;;;;12.17;7.20;;;2.00;99.90;;;;;;4996523;28;20189;-79
2021/04/08 04:32:13;;;;;;;13.77;8.10;;;2.10;99.90;;;;;;4995606;28;20417;-78
2021/04/08 04:34:42;;;;;;;16.73;7.82;;;2.00;99.90;;;;;;4996480;28;20542;-78
2021/04/08 04:37:09;;;;;;;14.88;7.30;;;1.90;99.90;;;;;;4995263;28;20614;-78
2021/04/08 04:39:36;;;;;;;11.93;7.18;;;1.90;99.90;;;;;;4996533;28;20261;-78
2021/04/08 04:42:02;;;;;;;9.85;6.75;;;1.90;99.90;;;;;;4996643;28;20638;-78
2021/04/08 04:44:29;;;;;;;9.77;6.90;;;2.00;99.90;;;;;;4996415;28;20170;-79
2021/04/08 04:46:56;;;;;;;13.98;7.93;;;2.10;99.90;;;;;;4995236;28;20210;-79
2021/04/08 04:49:22;;;;;;;9.68;6.60;;;2.10;99.90;;;;;;4996626;28;20192;-78
2021/04/08 04:51:48;;;;;;;9.10;7.72;;;2.00;99.90;;;;;;4996350;28;20196;-79
2021/04/08 04:54:14;;;;;;;11.90;7.80;;;2.00;99.90;;;;;;4996399;28;20180;-78
2021/04/08 04:56:39;;;;;;;12.00;8.20;;;1.90;99.90;;;;;;4978505;28;20477;-78
2021/04/08 04:59:05;;;;;;;15.93;7.00;;;1.90;99.90;;;;;;4996409;28;20189;-79
2021/04/08 05:01:31;;;;;;;12.83;8.33;;;2.00;99.90;;;;;;4994979;28;20701;-78
2021/04/08 05:03:57;;;;;;;11.53;7.30;;;2.00;99.90;;;;;;4994858;28;20186;-78
2021/04/08 05:06:23;;;;;;;11.25;7.80;;;2.00;99.90;;;;;;4994524;28;20207;-78
2021/04/08 05:08:49;;;;;;;11.55;7.85;;;1.90;99.90;;;;;;4996153;28;20214;-78
2021/04/08 05:11:14;;;;;;;9.90;7.40;;;2.00;99.90;;;;;;4996020;28;20225;-79
2021/04/08 05:13:40;;;;;;;12.57;7.30;;;2.00;99.90;;;;;;4994836;28;20197;-79
2021/04/08 05:16:06;;;;;;;17.90;7.60;;;1.90;99.90;;;;;;4995626;28;20675;-79
2021/04/08 05:18:32;;;;;;;13.30;7.30;;;1.90;99.90;;;;;;4996120;28;20190;-78
2021/04/08 05:20:57;;;;;;;14.20;7.77;;;1.90;99.90;;;;;;4995895;28;20426;-79
2021/04/08 05:23:24;;;;;;;15.20;8.77;;;1.90;99.90;;;;;;4995833;28;20184;-79
2021/04/08 05:25:50;;;;;;;10.45;7.68;;;1.90;99.90;;;;;;4994776;28;20453;-79
2021/04/08 05:28:16;;;;;;;9.75;7.60;;;1.80;99.90;;;;;;4995742;28;20183;-78
2021/04/08 05:30:42;;;;;;;16.23;7.80;;;1.80;99.90;;;;;;4994594;28;20642;-78
2021/04/08 05:33:07;;;;;;;17.88;7.70;;;1.80;99.90;;;;;;4995644;28;20179;-78
2021/04/08 05:35:33;;;;;;;11.37;7.60;;;1.80;99.90;;;;;;4995233;28;20202;-78
2021/04/08 05:37:59;;;;;;;11.20;7.17;;;1.80;99.90;;;;;;4995436;28;20705;-78
2021/04/08 05:40:24;;;;;;;13.00;7.57;;;1.80;99.90;;;;;;4994282;28;20544;-78
2021/04/08 05:42:50;;;;;;;8.53;7.00;;;1.80;99.90;;;;;;4995641;28;20193;-79
2021/04/08 05:45:18;;;;;;;14.00;7.27;;;1.80;99.90;;;;;;4995187;28;20186;-78
2021/04/08 05:47:44;;;;;;;8.70;7.35;;;1.80;99.90;;;;;;4995393;28;20183;-78
2021/04/08 05:50:12;;;;;;;10.18;6.60;;;1.80;99.90;;;;;;4995213;28;20193;-79
2021/04/08 05:52:37;;;;;;;9.50;6.07;;;1.80;99.90;;;;;;4995389;28;20186;-78
2021/04/08 05:55:05;;;;;;;9.63;6.53;;;1.80;99.90;;;;;;4995006;28;20593;-78
2021/04/08 05:57:30;;;;;;;18.10;7.85;;;1.80;99.90;;;;;;4995115;28;20202;-79
2021/04/08 05:59:56;;;;;;;13.53;7.37;;;1.80;99.90;;;;;;4995116;28;20611;-78
2021/04/08 06:02:22;;;;;;;16.43;6.53;;;1.80;99.90;;;;;;4995093;28;20441;-78
2021/04/08 06:04:47;;;;;;;9.83;7.17;;;1.80;99.90;;;;;;4994846;28;20647;-79
2021/04/08 06:07:13;;;;;;;14.03;6.93;;;1.70;99.90;;;;;;4995029;28;20221;-78
2021/04/08 06:09:38;;;;;;;15.60;6.70;;;1.70;99.90;;;;;;4995138;28;20189;-78
2021/04/08 06:12:05;;;;;;;10.63;6.77;;;1.80;99.90;;;;;;4994964;28;20678;-79
2021/04/08 06:14:32;;;;;;;10.73;6.10;;;1.80;99.90;;;;;;4994540;28;20222;-79
2021/04/08 06:16:58;;;;;;;9.82;6.55;;;1.80;99.90;;;;;;4994725;28;20683;-78
2021/04/08 06:19:23;;;;;;;7.20;6.20;;;1.80;99.90;;;;;;4994441;28;20193;-78
2021/04/08 06:21:49;;;;;;;10.40;5.67;;;1.80;99.90;;;;;;4994736;28;20173;-78
2021/04/08 06:24:15;;;;;;;16.50;6.60;;;1.80;99.90;;;;;;4993288;28;20190;-79
2021/04/08 06:26:41;;;;;;;9.02;5.90;;;1.80;99.90;;;;;;4994242;28;20638;-79
2021/04/08 06:29:07;;;;;;;9.27;6.30;;;1.80;99.90;;;;;;4994533;28;20182;-78
2021/04/08 06:31:34;;;;;;;19.10;7.40;;;1.90;99.90;;;;;;4994593;28;20271;-78
2021/04/08 06:34:00;;;;;;;10.55;7.28;;;1.90;99.90;;;;;;4994464;28;20270;-79
2021/04/08 06:36:26;;;;;;;13.10;6.95;;;1.90;99.90;;;;;;4993201;28;20293;-78
2021/04/08 06:38:52;;;;;;;12.40;6.70;;;1.90;99.90;;;;;;4993172;28;20202;-80
2021/04/08 06:41:18;;;;;;;8.70;6.20;;;2.00;99.90;;;;;;4993300;28;20184;-79
2021/04/08 06:43:45;;;;;;;12.20;6.43;;;2.10;99.90;;;;;;4994471;28;20265;-77
2021/04/08 06:46:21;;;;;;;11.05;6.53;;;2.20;99.90;;;;;;4993143;28;20451;-78
2021/04/08 06:48:55;;;;;;;7.30;5.53;;;2.30;99.90;;;;;;4994336;28;20181;-83
2021/04/08 06:51:29;;;;;;;7.95;6.80;;;2.40;99.90;;;;;;4993887;28;20539;-83
2021/04/08 06:53:55;;;;;;;11.80;6.82;;;2.50;99.90;;;;;;4993157;28;20661;-83
2021/04/08 06:56:22;;;;;;;14.68;7.15;;;2.60;99.90;;;;;;5011388;23;20287;-83
2021/04/08 06:58:48;;;;;;;10.40;6.30;;;2.80;99.90;;;;;;4992706;28;20533;-83
2021/04/08 07:01:21;;;;;;;10.32;5.95;;;3.00;99.90;;;;;;4996311;28;20186;-81
2021/04/08 07:03:54;;;;;;;9.07;6.13;;;3.20;99.90;;;;;;5014115;28;20189;-80
2021/04/08 07:06:22;;;;;;;25.92;5.82;;;3.40;99.90;;;;;;5013540;28;20201;-79
2021/04/08 07:15:33;;;;;;;6.07;4.65;;;3.80;99.90;;;;;;5013387;28;20558;-82
2021/04/08 07:17:58;;;;;;;9.47;4.60;;;3.90;99.90;;;;;;4995642;28;20206;-83
2021/04/08 07:33:20;;;;;;;6.28;4.25;;;4.50;99.90;;;;;;4993975;28;20163;-82
2021/04/08 07:59:23;;;;;;;8.55;4.75;;;4.70;99.90;;;;;;5006928;23;20621;-83
2021/04/08 08:06:18;;;;;;;10.57;5.15;;;4.90;99.90;;;;;;4917310;29;20264;-84
2021/04/08 08:13:03;;;;;;;;;;;;;;;;;;;;;
2021/04/08 08:15:39;;;;;;;15.65;5.63;;;5.50;99.90;;;;;;4927060;28;20411;-84
2021/04/08 08:18:05;;;;;;;8.80;5.47;;;5.50;99.90;;;;;;4966303;28;20245;-84
2021/04/08 08:20:47;;;;;;;12.63;4.57;;;5.60;99.90;;;;;;4993125;28;20229;-84
2021/04/08 08:23:12;;;;;;;6.88;4.35;;;5.40;99.90;;;;;;4996720;28;20695;-84
2021/04/08 08:25:38;;;;;;;9.77;4.40;;;5.50;99.90;;;;;;4994385;28;20207;-83
2021/04/08 08:28:42;;;;;;;7.47;5.07;;;5.70;99.90;;;;;;4985240;28;20180;-84
2021/04/08 08:31:11;;;;;;;14.43;4.95;;;5.70;99.90;;;;;;4992641;28;20606;-85
2021/04/08 08:33:37;;;;;;;18.70;5.18;;;5.70;99.90;;;;;;4996568;28;20169;-84
2021/04/08 08:36:39;;;;;;;9.17;4.00;;;5.70;99.90;;;;;;4994942;28;20294;-84
2021/04/08 08:39:10;;;;;;;10.18;4.90;;;5.70;99.90;;;;;;4992867;28;20194;-84
2021/04/08 08:41:38;;;;;;;14.45;4.43;;;5.70;99.90;;;;;;4996393;28;20168;-84
2021/04/08 08:44:06;;;;;;;5.65;3.65;;;5.30;99.90;;;;;;4996151;28;20181;-85
2021/04/08 08:47:00;;;;;;;7.28;4.25;;;5.50;99.90;;;;;;5012422;23;20649;-86
2021/04/08 08:50:10;;;;;;;;;;;;;;;;;;;;;
2021/04/08 08:52:57;;;;;;;6.93;4.47;;;5.80;99.90;;;;;;4996636;28;20185;-85
2021/04/08 08:55:36;;;;;;;7.85;4.28;;;5.90;99.90;;;;;;4994624;28;20603;-90
2021/04/08 08:58:03;;;;;;;6.22;4.30;;;5.90;99.90;;;;;;4996424;28;20198;-90
2021/04/08 09:00:29;;;;;;;10.60;3.25;;;6.20;99.90;;;;;;4995572;28;20168;-86
2021/04/08 09:02:57;;;;;;;8.07;4.18;;;6.20;99.90;;;;;;4995110;28;20584;-85
2021/04/08 09:05:25;;;;;;;10.05;4.05;;;6.10;99.90;;;;;;4995527;28;20202;-86
2021/04/08 09:07:53;;;;;;;7.70;4.22;;;6.30;99.90;;;;;;4996316;28;20226;-87
2021/04/08 09:10:33;;;;;;;8.82;3.47;;;6.50;99.90;;;;;;4996305;28;20234;-86
2021/04/08 09:13:00;;;;;;;6.78;3.53;;;6.40;99.90;;;;;;4994525;28;20185;-86
2021/04/08 09:15:26;;;;;;;10.90;4.80;;;6.40;99.90;;;;;;4978386;28;20234;-86
2021/04/08 09:18:04;;;;;;;6.83;3.63;;;6.40;99.90;;;;;;4995914;28;20633;-85
2021/04/08 09:20:31;;;;;;;11.05;4.45;;;6.30;99.90;;;;;;4994727;28;20425;-84
2021/04/08 09:23:09;;;;;;;5.88;4.55;;;6.30;99.90;;;;;;4994719;28;20185;-85
2021/04/08 09:25:55;;;;;;;15.68;4.50;;;6.60;99.90;;;;;;4995484;28;20270;-84
2021/04/08 09:28:21;;;;;;;3.90;3.08;;;6.80;99.90;;;;;;4995919;28;20655;-84
2021/04/08 09:33:59;;;;;;;7.97;3.70;;;7.10;99.90;;;;;;4996013;28;20182;-83
2021/04/08 09:36:25;;;;;;;4.70;3.35;;;7.40;99.90;;;;;;5004381;28;20581;-84
2021/04/08 09:39:00;;;;;;;3.03;2.63;;;7.00;99.90;;;;;;4995691;28;20171;-81
2021/04/08 09:41:54;;;;;;;3.42;2.20;;;7.00;99.90;;;;;;4994645;28;20587;-84
2021/04/08 09:44:21;;;;;;;3.10;1.98;;;6.70;99.90;;;;;;4995701;28;20239;-86
2021/04/08 09:46:56;;;;;;;3.40;2.58;;;6.70;99.90;;;;;;4995368;28;20195;-85
2021/04/08 09:49:40;;;;;;;9.40;3.63;;;7.00;99.90;;;;;;4995472;28;20580;-84
2021/04/08 09:52:09;;;;;;;4.13;2.95;;;6.80;99.90;;;;;;4995365;28;20182;-84
2021/04/08 09:54:40;;;;;;;5.95;2.85;;;6.80;99.90;;;;;;4993828;28;20187;-84
2021/04/08 09:57:08;;;;;;;5.10;2.80;;;6.90;99.90;;;;;;4995291;28;20218;-84
2021/04/08 09:59:54;;;;;;;3.92;2.15;;;6.90;99.90;;;;;;4983596;28;20183;-85
2021/04/08 10:02:20;;;;;;;7.65;2.80;;;6.70;99.90;;;;;;4974883;28;20183;-84
2021/04/08 10:05:02;;;;;;;3.90;2.40;;;6.50;99.90;;;;;;4988716;28;20180;-82
2021/04/08 10:07:28;;;;;;;3.90;3.15;;;6.60;99.90;;;;;;4976984;28;20220;-84
2021/04/08 10:09:55;;;;;;;6.90;3.10;;;6.60;99.90;;;;;;4987911;28;20286;-84
2021/04/08 10:12:31;;;;;;;5.22;3.40;;;6.50;99.90;;;;;;4982560;28;20627;-84
2021/04/08 10:14:57;;;;;;;5.32;3.10;;;6.40;99.90;;;;;;4988457;28;20183;-85
2021/04/08 10:17:36;;;;;;;2.97;2.70;;;6.60;99.90;;;;;;4976390;28;20271;-84
2021/04/08 10:20:06;;;;;;;5.40;2.80;;;6.80;99.90;;;;;;4987792;28;20180;-86
2021/04/08 10:22:44;;;;;;;4.70;2.70;;;7.40;99.90;;;;;;4975602;28;20167;-85
2021/04/08 10:25:11;;;;;;;5.45;2.92;;;7.50;99.90;;;;;;4975227;28;20214;-86
2021/04/08 10:27:37;;;;;;;5.88;2.58;;;7.20;99.90;;;;;;4974111;28;20611;-85
2021/04/08 10:30:17;;;;;;;4.50;3.03;;;7.10;99.90;;;;;;4974000;28;20188;-85
2021/04/08 10:32:43;;;;;;;5.25;3.03;;;6.80;99.90;;;;;;4974023;28;20458;-84
2021/04/08 10:35:30;;;;;;;12.25;3.30;;;6.70;99.90;;;;;;4973737;28;20210;-86
2021/04/08 10:38:04;;;;;;;6.10;3.08;;;6.80;99.90;;;;;;4992995;28;20215;-85
2021/04/08 10:40:31;;;;;;;4.00;3.60;;;6.90;99.90;;;;;;4977716;28;20184;-85
2021/04/08 10:43:07;;;;;;;6.47;3.85;;;7.20;99.90;;;;;;4990207;28;20215;-86
2021/04/08 10:45:33;;;;;;;5.30;3.00;;;7.10;99.90;;;;;;4974018;28;20192;-86
2021/04/08 10:48:01;;;;;;;8.13;3.70;;;7.30;99.90;;;;;;4989993;28;20246;-84
2021/04/08 10:50:27;;;;;;;3.58;2.42;;;7.10;99.90;;;;;;4974897;28;20230;-83
2021/04/08 10:52:53;;;;;;;3.30;3.00;;;6.80;99.90;;;;;;4974781;28;20637;-84
2021/04/08 10:55:23;;;;;;;5.47;3.88;;;6.90;99.90;;;;;;5006008;28;20533;-84
2021/04/08 10:57:49;;;;;;;6.63;3.15;;;7.20;99.90;;;;;;4974706;28;20200;-84
2021/04/08 11:00:17;;;;;;;4.67;3.37;;;7.20;99.60;;;;;;5005971;28;20282;-86
2021/04/08 11:02:44;;;;;;;5.85;2.75;;;7.30;99.90;;;;;;5006006;28;20263;-86
2021/04/08 11:05:25;;;;;;;7.05;3.38;;;7.20;99.90;;;;;;4974383;28;20172;-83
2021/04/08 11:07:54;;;;;;;4.07;3.55;;;7.20;99.00;;;;;;4974702;28;20196;-84
2021/04/08 11:10:23;;;;;;;4.05;3.20;;;7.10;99.90;;;;;;5005951;28;20238;-87
2021/04/08 11:12:50;;;;;;;7.80;3.53;;;7.20;99.90;;;;;;5006015;28;20191;-87
2021/04/08 11:15:20;;;;;;;5.35;3.40;;;6.90;99.00;;;;;;4974413;28;20240;-86
2021/04/08 11:17:51;;;;;;;4.00;3.17;;;6.90;98.70;;;;;;4974729;28;20283;-84
2021/04/08 11:20:25;;;;;;;4.78;3.28;;;7.10;99.90;;;;;;5006111;28;20711;-85
2021/04/08 11:22:51;;;;;;;4.65;3.47;;;7.30;99.90;;;;;;5005624;28;20223;-87
2021/04/08 11:25:18;;;;;;;9.07;3.97;;;7.50;99.90;;;;;;4974373;28;20223;-84
2021/04/08 11:27:44;;;;;;;5.05;3.15;;;7.60;99.00;;;;;;4975998;28;20184;-85
2021/04/08 11:30:39;;;;;;;6.80;4.00;;;7.50;98.00;;;;;;4989512;28;20286;-82
2021/04/08 11:33:13;;;;;;;6.85;4.55;;;7.60;99.90;;;;;;5006012;28;20180;-85
2021/04/08 11:35:41;;;;;;;5.72;3.03;;;7.80;98.60;;;;;;4974086;28;20227;-83
2021/04/08 11:38:24;;;;;;;4.10;2.88;;;8.10;99.20;;;;;;4973454;28;20262;-84
2021/04/08 11:41:08;;;;;;;5.82;3.63;;;7.60;98.70;;;;;;4974281;28;20242;-84
2021/04/08 11:43:45;;;;;;;7.75;4.32;;;7.60;98.20;;;;;;4973234;28;20184;-83
2021/04/08 11:46:31;;;;;;;6.38;3.63;;;7.70;98.90;;;;;;4974195;28;20192;-83
2021/04/08 11:48:58;;;;;;;5.75;3.97;;;7.70;98.80;;;;;;4974302;28;20175;-82
2021/04/08 11:51:27;;;;;;;4.82;3.30;;;7.30;97.80;;;;;;4973040;28;20320;-83
2021/04/08 11:53:53;;;;;;;9.75;3.28;;;7.40;98.70;;;;;;4973113;28;20180;-84
2021/04/08 11:56:36;;;;;;;4.82;3.55;;;7.50;98.20;;;;;;4972652;28;20215;-83
2021/04/08 11:59:21;;;;;;;5.30;3.63;;;7.50;98.50;;;;;;4973095;28;20183;-83
2021/04/08 12:01:49;;;;;;;4.78;3.50;;;7.80;99.90;;;;;;4972859;28;20314;-84
2021/04/08 12:04:25;;;;;;;7.88;3.85;;;8.00;98.60;;;;;;4974214;28;20234;-85
2021/04/08 12:06:55;;;;;;;6.40;4.05;;;8.00;97.20;;;;;;4973815;28;20200;-85
2021/04/08 12:09:35;;;;;;;7.13;3.88;;;8.00;96.80;;;;;;4972812;28;20206;-85
2021/04/08 12:12:01;;;;;;;5.28;3.80;;;8.20;97.70;;;;;;4972779;28;20191;-85
2021/04/08 12:14:26;;;;;;;9.50;4.30;;;8.30;99.00;;;;;;4972698;28;20222;-84
2021/04/08 12:17:04;;;;;;;8.77;4.00;;;7.70;97.20;;;;;;4956120;28;20212;-83
2021/04/08 12:19:29;;;;;;;8.57;4.28;;;8.00;97.60;;;;;;4974036;28;20176;-84
2021/04/08 12:22:00;;;;;;;6.20;3.67;;;8.80;99.90;;;;;;4972953;28;20195;-84
2021/04/08 12:24:26;;;;;;;4.90;4.40;;;8.50;96.90;;;;;;4972674;28;20870;-84
2021/04/08 12:26:52;;;;;;;4.10;3.70;;;8.30;97.40;;;;;;4972610;28;20293;-85
2021/04/08 12:29:20;;;;;;;10.83;3.97;;;8.30;97.30;;;;;;4957127;28;20200;-84
2021/04/08 12:31:48;;;;;;;7.57;3.70;;;8.40;97.90;;;;;;4957262;28;20577;-85
2021/04/08 12:34:13;;;;;;;7.70;4.72;;;8.40;97.50;;;;;;4972497;28;20187;-82
2021/04/08 12:36:39;;;;;;;6.37;4.20;;;8.60;98.50;;;;;;4976659;28;20547;-83
2021/04/08 12:39:05;;;;;;;6.60;4.40;;;8.60;99.70;;;;;;4960396;28;20192;-83
2021/04/08 12:41:31;;;;;;;6.50;4.47;;;9.00;99.50;;;;;;4960433;28;20194;-83
2021/04/08 12:43:56;;;;;;;7.17;4.67;;;9.20;98.00;;;;;;4976063;28;20423;-83
2021/04/08 12:46:23;;;;;;;6.10;4.60;;;9.20;95.70;;;;;;4976897;28;20463;-83
2021/04/08 12:48:48;;;;;;;6.70;4.80;;;9.40;95.90;;;;;;4976028;28;20223;-83
2021/04/08 12:51:14;;;;;;;5.50;4.33;;;9.50;95.90;;;;;;4975916;28;20208;-83
2021/04/08 12:53:40;;;;;;;6.03;4.10;;;9.30;96.30;;;;;;4975883;28;20251;-83
2021/04/08 12:56:05;;;;;;;4.20;3.53;;;9.60;93.90;;;;;;4975446;28;20234;-81
2021/04/08 12:58:31;;;;;;;5.70;3.93;;;10.00;93.40;;;;;;4959632;28;20204;-81
2021/04/08 13:00:57;;;;;;;8.87;4.20;;;10.20;94.70;;;;;;4975809;28;20251;-82
2021/04/08 13:03:24;;;;;;;6.50;3.20;;;10.70;95.10;;;;;;4975710;28;20176;-82
2021/04/08 13:05:49;;;;;;;4.22;3.28;;;10.50;91.70;;;;;;4959203;28;20203;-82
2021/04/08 13:08:15;;;;;;;4.30;3.90;;;10.30;91.70;;;;;;4975912;28;20235;-82
2021/04/08 13:10:41;;;;;;;4.50;3.23;;;10.50;91.50;;;;;;4976856;28;20176;-81
2021/04/08 13:13:08;;;;;;;5.38;3.72;;;10.50;92.20;;;;;;4976707;28;20274;-83
2021/04/08 13:15:35;;;;;;;6.25;4.50;;;10.20;93.30;;;;;;4976430;28;20676;-82
2021/04/08 13:18:01;;;;;;;7.80;4.20;;;9.80;92.50;;;;;;4975485;28;20669;-82
2021/04/08 13:20:28;;;;;;;6.40;4.00;;;9.50;93.50;;;;;;4976561;28;20184;-83
2021/04/08 13:22:54;;;;;;;5.70;3.90;;;9.50;93.70;;;;;;4975887;28;20176;-83
2021/04/08 13:25:21;;;;;;;6.90;4.47;;;10.30;92.40;;;;;;4959424;28;20211;-84
2021/04/08 13:27:47;;;;;;;8.70;3.80;;;11.00;91.10;;;;;;4976598;28;20302;-82
2021/04/08 13:30:15;;;;;;;4.93;4.00;;;11.50;90.60;;;;;;4975846;28;20632;-83
2021/04/08 13:32:41;;;;;;;4.37;3.97;;;12.30;91.30;;;;;;4976545;28;20212;-82
2021/04/08 13:35:07;;;;;;;5.33;3.63;;;13.50;86.70;;;;;;4976150;28;20408;-82
2021/04/08 13:37:34;;;;;;;5.03;4.00;;;11.80;84.50;;;;;;4974976;28;20210;-85
2021/04/08 13:40:00;;;;;;;3.73;3.40;;;11.60;88.30;;;;;;4976646;28;20482;-81
2021/04/08 13:42:25;;;;;;;5.90;3.90;;;13.00;86.60;;;;;;4976937;28;20431;-83
2021/04/08 13:44:51;;;;;;;7.30;4.37;;;13.90;82.30;;;;;;4979748;28;20184;-84
2021/04/08 13:47:17;;;;;;;11.23;5.30;;;13.20;78.60;;;;;;4976965;28;20203;-83
2021/04/08 13:49:43;;;;;;;5.63;4.63;;;11.90;80.80;;;;;;4976569;28;20184;-84
2021/04/08 13:52:09;;;;;;;5.83;5.10;;;11.70;79.90;;;;;;4977001;28;20818;-85
2021/04/08 13:54:35;;;;;;;6.40;5.00;;;11.10;79.70;;;;;;4974517;28;20188;-85
2021/04/08 13:57:01;;;;;;;8.73;4.35;;;11.20;79.90;;;;;;4974874;28;20220;-83
2021/04/08 13:59:26;;;;;;;6.00;4.80;;;11.80;83.80;;;;;;4973531;28;20280;-86
2021/04/08 14:01:52;;;;;;;7.27;4.27;;;12.50;82.80;;;;;;4972509;28;20191;-86